createdAt,value
2018-06-03T00:00:20.206Z,17.20
2018-06-03T00:05:21.735Z,17.20
2018-06-03T00:10:23.270Z,17.30
2018-06-03T00:15:24.808Z,17.30
2018-06-03T00:20:44.683Z,17.20
2018-06-03T00:25:46.979Z,17.40
2018-06-03T00:30:49.311Z,17.60
2018-06-03T00:36:09.299Z,17.60
2018-06-03T00:41:10.844Z,17.70
2018-06-03T00:46:12.375Z,17.70
2018-06-03T00:51:13.920Z,17.60
2018-06-03T00:56:33.852Z,17.70
2018-06-03T01:01:36.133Z,17.70
2018-06-03T01:06:38.440Z,17.70
2018-06-03T01:11:39.985Z,17.70
2018-06-03T01:16:41.526Z,17.80
2018-06-03T01:21:43.029Z,17.80
2018-06-03T01:26:45.330Z,17.60
2018-06-03T01:31:46.866Z,17.60
2018-06-03T01:36:48.387Z,17.40
2018-06-03T01:41:49.898Z,17.30
2018-06-03T01:46:51.448Z,17.10
2018-06-03T01:51:52.972Z,16.90
2018-06-03T01:56:54.490Z,16.80
2018-06-03T02:01:56.024Z,16.80
2018-06-03T02:06:57.537Z,16.70
2018-06-03T02:11:59.080Z,16.70
2018-06-03T02:17:00.806Z,16.70
2018-06-03T02:22:02.340Z,16.60
2018-06-03T02:27:03.920Z,16.60
2018-06-03T02:32:06.245Z,16.80
2018-06-03T02:37:07.941Z,16.70
2018-06-03T02:42:09.442Z,16.80
2018-06-03T02:47:11.695Z,16.50
2018-06-03T02:52:13.291Z,16.30
2018-06-03T02:57:14.809Z,16.40
2018-06-03T03:02:16.336Z,16.30
2018-06-03T03:07:18.592Z,16.20
2018-06-03T03:12:51.527Z,16.20
2018-06-03T03:17:54.691Z,16.20
2018-06-03T03:22:57.821Z,16.00
2018-06-03T03:28:01.035Z,15.90
2018-06-03T03:33:04.289Z,15.80
2018-06-03T03:38:07.473Z,15.60
2018-06-03T03:43:11.311Z,15.70
2018-06-03T03:48:14.493Z,15.70
2018-06-03T03:53:17.739Z,15.50
2018-06-03T03:58:21.172Z,15.60
2018-06-03T04:03:24.361Z,15.80
2018-06-03T04:08:27.658Z,16.00
2018-06-03T04:13:30.942Z,16.30
2018-06-03T04:18:34.088Z,16.80
2018-06-03T04:23:37.390Z,17.70
2018-06-03T04:28:40.558Z,19.60
2018-06-03T04:33:43.743Z,21.40
2018-06-03T04:38:46.956Z,23.00
2018-06-03T04:43:50.080Z,24.20
2018-06-03T04:48:53.210Z,24.90
2018-06-03T04:53:56.507Z,25.70
2018-06-03T04:58:59.628Z,27.00
2018-06-03T05:04:02.814Z,27.60
2018-06-03T05:09:07.175Z,28.00
2018-06-03T05:14:10.501Z,28.50
2018-06-03T05:19:13.766Z,28.20
2018-06-03T05:24:16.948Z,28.80
2018-06-03T05:29:20.242Z,29.20
2018-06-03T05:34:23.423Z,30.10
2018-06-03T05:39:26.571Z,29.60
2018-06-03T05:44:29.771Z,29.90
2018-06-03T05:49:32.947Z,30.10
2018-06-03T05:54:36.200Z,30.10
2018-06-03T05:59:39.418Z,30.50
2018-06-03T06:04:42.618Z,30.70
2018-06-03T06:09:45.778Z,31.00
2018-06-03T06:14:48.968Z,31.60
2018-06-03T06:19:52.230Z,32.10
2018-06-03T06:24:55.371Z,31.90
2018-06-03T06:29:59.104Z,32.50
2018-06-03T06:40:37.683Z,32.20
2018-06-03T06:45:41.174Z,32.10
2018-06-03T06:50:44.612Z,31.60
2018-06-03T06:55:48.043Z,31.80
2018-06-03T07:00:51.443Z,32.60
2018-06-03T07:05:55.739Z,32.90
2018-06-03T07:10:58.928Z,32.90
2018-06-03T07:16:02.220Z,32.80
2018-06-03T07:26:27.604Z,33.10
2018-06-03T07:31:31.377Z,32.20
2018-06-03T07:36:35.008Z,32.40
2018-06-03T07:41:38.961Z,32.80
2018-06-03T07:46:43.157Z,33.20
2018-06-03T07:57:21.651Z,33.40
2018-06-03T08:02:25.388Z,33.20
2018-06-03T08:07:29.183Z,33.00
2018-06-03T08:12:40.862Z,33.00
2018-06-03T08:23:37.005Z,32.90
2018-06-03T08:29:05.863Z,33.00
2018-06-03T08:34:20.430Z,32.80
2018-06-03T08:39:25.313Z,33.40
2018-06-03T08:44:29.925Z,32.10
2018-06-03T09:12:14.311Z,30.50
2018-06-03T09:39:37.658Z,29.00
2018-06-03T09:44:41.151Z,28.30
2018-06-03T09:49:44.439Z,27.50
2018-06-03T09:54:48.133Z,27.50
2018-06-03T10:05:54.163Z,28.10
2018-06-03T10:10:59.311Z,28.10
2018-06-03T10:16:03.344Z,27.90
2018-06-03T10:21:06.685Z,27.80
2018-06-03T10:26:10.135Z,27.50
2018-06-03T10:31:26.954Z,27.00
2018-06-03T10:36:30.779Z,27.30
2018-06-03T10:41:34.803Z,27.20
2018-06-03T10:52:44.107Z,29.10
2018-06-03T10:57:56.643Z,30.80
2018-06-03T11:03:00.296Z,32.00
2018-06-03T11:08:03.703Z,33.00
2018-06-03T11:13:07.039Z,33.60
2018-06-03T11:23:14.727Z,35.50
2018-06-03T11:28:19.355Z,35.20
2018-06-03T11:33:22.869Z,33.30
2018-06-03T11:38:26.131Z,29.50
2018-06-03T11:43:29.399Z,28.20
2018-06-03T11:48:32.996Z,27.40
2018-06-03T11:53:36.343Z,27.40
2018-06-03T11:58:54.723Z,27.80
2018-06-03T12:04:08.679Z,28.00
2018-06-03T12:09:14.866Z,27.80
2018-06-03T12:14:18.277Z,27.50
2018-06-03T12:19:21.566Z,27.20
2018-06-03T12:24:24.829Z,27.50
2018-06-03T12:29:28.020Z,27.80
2018-06-03T12:34:31.241Z,28.20
2018-06-03T12:39:34.455Z,28.40
2018-06-03T12:44:37.643Z,28.70
2018-06-03T12:49:41.072Z,28.80
2018-06-03T12:54:44.341Z,28.10
2018-06-03T12:59:47.536Z,27.90
2018-06-03T13:04:50.843Z,28.40
2018-06-03T13:15:05.026Z,28.00
2018-06-03T13:20:17.429Z,27.80
2018-06-03T13:25:22.642Z,27.60
2018-06-03T13:30:27.402Z,27.30
2018-06-03T13:35:31.050Z,27.40
2018-06-03T13:40:34.200Z,27.80
2018-06-03T13:45:37.428Z,28.10
2018-06-03T13:50:40.843Z,28.30
2018-06-03T13:55:44.102Z,28.60
2018-06-03T14:00:48.433Z,28.30
2018-06-03T14:05:52.012Z,28.40
2018-06-03T14:10:55.267Z,28.30
2018-06-03T14:16:25.870Z,27.60
2018-06-03T14:21:29.674Z,27.60
2018-06-03T14:26:33.419Z,27.70
2018-06-03T14:31:36.793Z,27.80
2018-06-03T14:36:40.232Z,27.90
2018-06-03T14:41:43.554Z,28.10
2018-06-03T14:46:47.275Z,28.70
2018-06-03T14:51:50.555Z,29.30
2018-06-03T14:56:53.948Z,29.20
2018-06-03T15:01:57.527Z,28.60
2018-06-03T15:07:00.954Z,28.20
2018-06-03T15:12:04.324Z,28.20
2018-06-03T15:22:13.554Z,28.30
2018-06-03T15:27:18.124Z,28.50
2018-06-03T15:32:21.452Z,28.90
2018-06-03T15:37:25.772Z,28.60
2018-06-03T15:42:28.995Z,28.90
2018-06-03T15:47:33.126Z,28.40
2018-06-03T15:58:11.477Z,28.20
2018-06-03T16:03:15.487Z,27.60
2018-06-03T16:08:18.842Z,27.10
2018-06-03T16:13:22.530Z,26.90
2018-06-03T16:18:44.310Z,26.80
2018-06-03T16:23:53.304Z,26.60
2018-06-03T16:28:57.143Z,26.60
2018-06-03T16:34:01.427Z,26.50
2018-06-03T16:39:06.687Z,26.40
2018-06-03T16:44:09.916Z,26.30
2018-06-03T16:49:13.369Z,26.20
2018-06-03T16:54:16.832Z,26.20
2018-06-03T16:59:20.571Z,26.20
2018-06-03T17:04:25.087Z,26.10
2018-06-03T17:09:29.028Z,26.10
2018-06-03T17:14:32.662Z,26.00
2018-06-03T17:19:36.344Z,26.00
2018-06-03T17:24:40.512Z,26.00
2018-06-03T17:29:43.843Z,26.00
2018-06-03T17:34:48.163Z,26.00
2018-06-03T17:39:51.443Z,26.00
2018-06-03T17:44:54.637Z,25.90
2018-06-03T17:49:58.067Z,25.70
2018-06-03T17:55:01.396Z,25.60
2018-06-03T18:00:05.020Z,25.50
2018-06-03T18:05:08.176Z,25.30
2018-06-03T18:10:11.324Z,25.30
2018-06-03T18:15:14.548Z,25.20
2018-06-03T18:20:17.746Z,25.10
2018-06-03T18:25:20.987Z,25.00
2018-06-03T18:30:24.189Z,24.90
2018-06-03T18:35:27.563Z,24.80
2018-06-03T18:40:31.139Z,24.60
2018-06-03T18:45:34.720Z,24.40
2018-06-03T18:50:49.004Z,24.20
2018-06-03T19:22:10.143Z,23.70
2018-06-03T19:27:13.436Z,22.60
2018-06-03T19:32:16.611Z,22.30
2018-06-03T19:37:19.907Z,22.00
2018-06-03T19:42:23.204Z,21.50
2018-06-03T19:47:26.528Z,21.20
2018-06-03T19:52:29.700Z,21.20
2018-06-03T19:57:33.336Z,21.30
2018-06-03T20:02:36.485Z,21.40
2018-06-03T20:07:39.944Z,21.40
2018-06-03T20:12:43.110Z,21.40
2018-06-03T20:17:47.283Z,21.40
2018-06-03T20:22:50.691Z,21.40
2018-06-03T20:27:53.841Z,21.20
2018-06-03T20:32:57.027Z,21.20
2018-06-03T20:38:00.212Z,21.10
2018-06-03T20:43:03.503Z,20.90
2018-06-03T20:48:06.704Z,20.80
2018-06-03T20:53:10.071Z,20.70
2018-06-03T20:58:13.296Z,20.40
2018-06-03T21:03:16.964Z,20.10
2018-06-03T21:08:20.127Z,20.00
2018-06-03T21:13:23.437Z,20.10
2018-06-03T21:18:26.624Z,20.20
2018-06-03T21:23:29.815Z,20.20
2018-06-03T21:28:33.131Z,20.20
2018-06-03T21:33:36.269Z,20.00
2018-06-03T21:38:40.048Z,20.00
2018-06-03T21:43:43.302Z,19.90
2018-06-03T21:48:46.578Z,19.80
2018-06-03T21:53:50.136Z,19.80
2018-06-03T21:58:53.297Z,19.80
2018-06-03T22:03:56.800Z,19.80
2018-06-03T22:08:59.991Z,19.70
2018-06-03T22:14:03.243Z,19.60
2018-06-03T22:19:06.434Z,19.50
2018-06-03T22:24:09.903Z,19.50
2018-06-03T22:29:13.107Z,19.50
2018-06-03T22:39:19.472Z,19.60
2018-06-03T22:44:22.563Z,19.50
2018-06-03T22:49:25.695Z,19.30
2018-06-03T22:54:28.830Z,19.20
2018-06-03T22:59:31.984Z,19.20
2018-06-03T23:04:35.124Z,19.20
2018-06-03T23:09:38.323Z,19.10
2018-06-03T23:14:41.476Z,19.10
2018-06-03T23:19:44.783Z,19.00
2018-06-03T23:24:48.180Z,19.00
2018-06-03T23:29:51.482Z,18.90
2018-06-03T23:34:54.680Z,18.80
2018-06-03T23:39:57.883Z,18.70
2018-06-03T23:45:01.027Z,18.70
2018-06-03T23:50:04.404Z,18.70
2018-06-03T23:55:07.611Z,18.70
